sensor_id;sensor_type;location;lat;lon;timestamp;P1;durP1;ratioP1;P2;durP2;ratioP2
83690;SDS011;73671;43.220;0.064;2023-11-19T00:00:26;12.23;;;6.72;;
83690;SDS011;73671;43.220;0.064;2023-11-19T00:02:51;13.85;;;7.03;;
83690;SDS011;73671;43.220;0.064;2023-11-19T00:05:17;12.90;;;7.28;;
83690;SDS011;73671;43.220;0.064;2023-11-19T00:07:43;11.90;;;7.38;;
83690;SDS011;73671;43.220;0.064;2023-11-19T00:10:09;9.48;;;6.57;;
83690;SDS011;73671;43.220;0.064;2023-11-19T00:12:40;13.38;;;7.03;;
83690;SDS011;73671;43.220;0.064;2023-11-19T00:15:07;10.45;;;6.80;;
83690;SDS011;73671;43.220;0.064;2023-11-19T00:17:42;9.75;;;6.80;;
83690;SDS011;73671;43.220;0.064;2023-11-19T00:20:15;9.75;;;6.90;;
83690;SDS011;73671;43.220;0.064;2023-11-19T00:22:44;10.48;;;6.47;;
83690;SDS011;73671;43.220;0.064;2023-11-19T00:25:13;8.70;;;5.82;;
83690;SDS011;73671;43.220;0.064;2023-11-19T00:27:38;9.75;;;6.07;;
83690;SDS011;73671;43.220;0.064;2023-11-19T00:30:07;8.57;;;6.30;;
83690;SDS011;73671;43.220;0.064;2023-11-19T00:32:35;8.95;;;6.85;;
83690;SDS011;73671;43.220;0.064;2023-11-19T00:35:03;10.43;;;6.70;;
83690;SDS011;73671;43.220;0.064;2023-11-19T00:37:29;8.85;;;6.38;;
83690;SDS011;73671;43.220;0.064;2023-11-19T00:39:54;12.65;;;6.47;;
83690;SDS011;73671;43.220;0.064;2023-11-19T00:42:21;13.63;;;6.75;;
83690;SDS011;73671;43.220;0.064;2023-11-19T00:44:49;11.85;;;6.72;;
83690;SDS011;73671;43.220;0.064;2023-11-19T00:47:14;14.15;;;7.63;;
83690;SDS011;73671;43.220;0.064;2023-11-19T00:49:39;12.50;;;7.05;;
83690;SDS011;73671;43.220;0.064;2023-11-19T00:52:05;10.55;;;6.70;;
83690;SDS011;73671;43.220;0.064;2023-11-19T00:54:31;10.95;;;6.55;;
83690;SDS011;73671;43.220;0.064;2023-11-19T00:56:57;11.73;;;6.60;;
83690;SDS011;73671;43.220;0.064;2023-11-19T00:59:22;12.13;;;7.07;;
83690;SDS011;73671;43.220;0.064;2023-11-19T01:01:47;14.45;;;8.07;;
83690;SDS011;73671;43.220;0.064;2023-11-19T01:04:13;11.15;;;7.05;;
83690;SDS011;73671;43.220;0.064;2023-11-19T01:06:39;11.52;;;6.93;;
83690;SDS011;73671;43.220;0.064;2023-11-19T01:09:05;11.93;;;6.88;;
83690;SDS011;73671;43.220;0.064;2023-11-19T01:11:30;10.18;;;6.15;;
83690;SDS011;73671;43.220;0.064;2023-11-19T01:13:56;11.02;;;6.78;;
83690;SDS011;73671;43.220;0.064;2023-11-19T01:16:21;11.80;;;6.55;;
83690;SDS011;73671;43.220;0.064;2023-11-19T01:18:47;12.13;;;6.60;;
83690;SDS011;73671;43.220;0.064;2023-11-19T01:21:13;10.95;;;6.10;;
83690;SDS011;73671;43.220;0.064;2023-11-19T01:23:42;9.82;;;5.75;;
83690;SDS011;73671;43.220;0.064;2023-11-19T01:26:11;8.98;;;5.95;;
83690;SDS011;73671;43.220;0.064;2023-11-19T01:28:39;8.93;;;6.00;;
83690;SDS011;73671;43.220;0.064;2023-11-19T01:31:12;9.13;;;6.13;;
83690;SDS011;73671;43.220;0.064;2023-11-19T01:33:40;11.23;;;5.93;;
83690;SDS011;73671;43.220;0.064;2023-11-19T01:36:06;9.43;;;5.68;;
83690;SDS011;73671;43.220;0.064;2023-11-19T01:38:33;8.07;;;5.55;;
83690;SDS011;73671;43.220;0.064;2023-11-19T01:40:59;11.82;;;5.72;;
83690;SDS011;73671;43.220;0.064;2023-11-19T01:43:38;9.95;;;5.88;;
83690;SDS011;73671;43.220;0.064;2023-11-19T01:46:07;9.15;;;5.80;;
83690;SDS011;73671;43.220;0.064;2023-11-19T01:48:36;11.05;;;5.80;;
83690;SDS011;73671;43.220;0.064;2023-11-19T01:51:05;9.50;;;5.50;;
83690;SDS011;73671;43.220;0.064;2023-11-19T01:53:32;7.53;;;4.97;;
83690;SDS011;73671;43.220;0.064;2023-11-19T01:56:02;10.02;;;6.05;;
83690;SDS011;73671;43.220;0.064;2023-11-19T01:58:28;8.32;;;5.47;;
83690;SDS011;73671;43.220;0.064;2023-11-19T02:00:55;8.38;;;5.68;;
83690;SDS011;73671;43.220;0.064;2023-11-19T02:03:22;8.73;;;5.70;;
83690;SDS011;73671;43.220;0.064;2023-11-19T02:05:48;8.80;;;5.78;;
83690;SDS011;73671;43.220;0.064;2023-11-19T02:08:15;10.15;;;5.50;;
83690;SDS011;73671;43.220;0.064;2023-11-19T02:10:41;12.13;;;6.15;;
83690;SDS011;73671;43.220;0.064;2023-11-19T02:13:06;9.18;;;5.85;;
83690;SDS011;73671;43.220;0.064;2023-11-19T02:15:32;10.20;;;5.30;;
83690;SDS011;73671;43.220;0.064;2023-11-19T02:18:17;9.82;;;6.13;;
83690;SDS011;73671;43.220;0.064;2023-11-19T02:20:43;12.70;;;5.85;;
83690;SDS011;73671;43.220;0.064;2023-11-19T02:23:09;8.35;;;5.55;;
83690;SDS011;73671;43.220;0.064;2023-11-19T02:25:34;7.53;;;5.05;;
83690;SDS011;73671;43.220;0.064;2023-11-19T02:28:01;9.98;;;5.22;;
83690;SDS011;73671;43.220;0.064;2023-11-19T02:30:28;8.23;;;5.63;;
83690;SDS011;73671;43.220;0.064;2023-11-19T02:32:57;11.18;;;5.45;;
83690;SDS011;73671;43.220;0.064;2023-11-19T02:35:26;8.40;;;5.32;;
83690;SDS011;73671;43.220;0.064;2023-11-19T02:37:52;9.77;;;5.45;;
83690;SDS011;73671;43.220;0.064;2023-11-19T02:40:19;10.25;;;5.43;;
83690;SDS011;73671;43.220;0.064;2023-11-19T02:42:44;8.07;;;5.40;;
83690;SDS011;73671;43.220;0.064;2023-11-19T02:45:10;7.65;;;5.30;;
83690;SDS011;73671;43.220;0.064;2023-11-19T02:47:42;7.85;;;4.55;;
83690;SDS011;73671;43.220;0.064;2023-11-19T02:50:08;8.43;;;4.78;;
83690;SDS011;73671;43.220;0.064;2023-11-19T02:52:40;9.82;;;4.93;;
83690;SDS011;73671;43.220;0.064;2023-11-19T02:55:12;9.02;;;4.65;;
83690;SDS011;73671;43.220;0.064;2023-11-19T02:57:38;5.97;;;4.38;;
83690;SDS011;73671;43.220;0.064;2023-11-19T03:00:20;10.40;;;4.90;;
83690;SDS011;73671;43.220;0.064;2023-11-19T03:02:50;10.48;;;4.53;;
83690;SDS011;73671;43.220;0.064;2023-11-19T03:05:24;6.20;;;4.55;;
83690;SDS011;73671;43.220;0.064;2023-11-19T03:07:51;9.30;;;4.90;;
83690;SDS011;73671;43.220;0.064;2023-11-19T03:10:16;7.32;;;4.63;;
83690;SDS011;73671;43.220;0.064;2023-11-19T03:12:43;8.00;;;4.32;;
83690;SDS011;73671;43.220;0.064;2023-11-19T03:15:09;9.32;;;4.15;;
83690;SDS011;73671;43.220;0.064;2023-11-19T03:17:38;8.52;;;3.95;;
83690;SDS011;73671;43.220;0.064;2023-11-19T03:20:05;5.82;;;3.53;;
83690;SDS011;73671;43.220;0.064;2023-11-19T03:22:34;6.20;;;3.70;;
83690;SDS011;73671;43.220;0.064;2023-11-19T03:25:01;6.03;;;3.80;;
83690;SDS011;73671;43.220;0.064;2023-11-19T03:27:26;7.22;;;3.58;;
83690;SDS011;73671;43.220;0.064;2023-11-19T03:29:52;5.25;;;3.22;;
83690;SDS011;73671;43.220;0.064;2023-11-19T03:32:17;13.98;;;3.78;;
83690;SDS011;73671;43.220;0.064;2023-11-19T03:34:42;7.68;;;3.65;;
83690;SDS011;73671;43.220;0.064;2023-11-19T03:37:08;7.05;;;3.60;;
83690;SDS011;73671;43.220;0.064;2023-11-19T03:39:33;7.22;;;3.60;;
83690;SDS011;73671;43.220;0.064;2023-11-19T03:41:59;8.63;;;3.63;;
83690;SDS011;73671;43.220;0.064;2023-11-19T03:44:25;7.50;;;3.22;;
83690;SDS011;73671;43.220;0.064;2023-11-19T03:46:52;7.90;;;3.72;;
83690;SDS011;73671;43.220;0.064;2023-11-19T03:49:17;4.93;;;3.30;;
83690;SDS011;73671;43.220;0.064;2023-11-19T03:51:43;6.03;;;3.35;;
83690;SDS011;73671;43.220;0.064;2023-11-19T03:54:08;4.00;;;3.42;;
83690;SDS011;73671;43.220;0.064;2023-11-19T03:56:33;4.55;;;3.08;;
83690;SDS011;73671;43.220;0.064;2023-11-19T03:58:59;4.95;;;3.00;;
83690;SDS011;73671;43.220;0.064;2023-11-19T04:01:24;6.47;;;2.80;;
83690;SDS011;73671;43.220;0.064;2023-11-19T04:03:50;5.28;;;2.92;;
83690;SDS011;73671;43.220;0.064;2023-11-19T04:06:15;5.78;;;2.75;;
83690;SDS011;73671;43.220;0.064;2023-11-19T04:08:41;5.82;;;3.10;;
83690;SDS011;73671;43.220;0.064;2023-11-19T04:11:06;4.95;;;2.97;;
83690;SDS011;73671;43.220;0.064;2023-11-19T04:13:32;6.38;;;3.00;;
83690;SDS011;73671;43.220;0.064;2023-11-19T04:15:57;4.55;;;2.92;;
83690;SDS011;73671;43.220;0.064;2023-11-19T04:18:23;3.28;;;2.75;;
83690;SDS011;73671;43.220;0.064;2023-11-19T04:20:48;6.53;;;2.60;;
83690;SDS011;73671;43.220;0.064;2023-11-19T04:23:14;6.38;;;2.90;;
83690;SDS011;73671;43.220;0.064;2023-11-19T04:25:40;4.63;;;2.53;;
83690;SDS011;73671;43.220;0.064;2023-11-19T04:28:05;4.80;;;2.80;;
83690;SDS011;73671;43.220;0.064;2023-11-19T04:30:30;5.13;;;2.97;;
83690;SDS011;73671;43.220;0.064;2023-11-19T04:32:56;3.50;;;2.78;;
83690;SDS011;73671;43.220;0.064;2023-11-19T04:35:22;5.30;;;2.50;;
83690;SDS011;73671;43.220;0.064;2023-11-19T04:37:47;6.45;;;2.40;;
83690;SDS011;73671;43.220;0.064;2023-11-19T04:40:13;4.40;;;2.65;;
83690;SDS011;73671;43.220;0.064;2023-11-19T04:42:38;4.57;;;2.72;;
83690;SDS011;73671;43.220;0.064;2023-11-19T04:45:07;2.85;;;2.17;;
83690;SDS011;73671;43.220;0.064;2023-11-19T04:47:33;4.40;;;2.47;;
83690;SDS011;73671;43.220;0.064;2023-11-19T04:49:59;6.07;;;2.40;;
83690;SDS011;73671;43.220;0.064;2023-11-19T04:52:24;4.85;;;2.42;;
83690;SDS011;73671;43.220;0.064;2023-11-19T04:54:50;3.92;;;2.60;;
83690;SDS011;73671;43.220;0.064;2023-11-19T04:57:15;5.00;;;2.28;;
83690;SDS011;73671;43.220;0.064;2023-11-19T04:59:41;3.13;;;2.30;;
83690;SDS011;73671;43.220;0.064;2023-11-19T05:02:07;6.65;;;2.15;;
83690;SDS011;73671;43.220;0.064;2023-11-19T05:04:33;3.08;;;2.30;;
83690;SDS011;73671;43.220;0.064;2023-11-19T05:06:58;6.35;;;2.38;;
83690;SDS011;73671;43.220;0.064;2023-11-19T05:09:24;3.75;;;2.42;;
83690;SDS011;73671;43.220;0.064;2023-11-19T05:11:49;3.63;;;2.30;;
83690;SDS011;73671;43.220;0.064;2023-11-19T05:14:15;3.33;;;2.30;;
83690;SDS011;73671;43.220;0.064;2023-11-19T05:16:41;8.43;;;2.72;;
83690;SDS011;73671;43.220;0.064;2023-11-19T05:19:07;3.90;;;2.55;;
83690;SDS011;73671;43.220;0.064;2023-11-19T05:21:33;6.10;;;2.40;;
83690;SDS011;73671;43.220;0.064;2023-11-19T05:23:59;3.22;;;2.55;;
83690;SDS011;73671;43.220;0.064;2023-11-19T05:26:25;3.45;;;2.75;;
83690;SDS011;73671;43.220;0.064;2023-11-19T05:28:50;5.03;;;2.95;;
83690;SDS011;73671;43.220;0.064;2023-11-19T05:31:16;9.85;;;3.00;;
83690;SDS011;73671;43.220;0.064;2023-11-19T05:33:43;3.92;;;2.83;;
83690;SDS011;73671;43.220;0.064;2023-11-19T05:36:10;3.92;;;2.67;;
83690;SDS011;73671;43.220;0.064;2023-11-19T05:38:36;3.78;;;2.85;;
83690;SDS011;73671;43.220;0.064;2023-11-19T05:41:02;5.63;;;2.80;;
83690;SDS011;73671;43.220;0.064;2023-11-19T05:43:27;4.38;;;2.80;;
83690;SDS011;73671;43.220;0.064;2023-11-19T05:45:53;6.72;;;2.90;;
83690;SDS011;73671;43.220;0.064;2023-11-19T05:48:18;5.53;;;2.80;;
83690;SDS011;73671;43.220;0.064;2023-11-19T05:50:44;2.63;;;2.35;;
83690;SDS011;73671;43.220;0.064;2023-11-19T05:53:09;8.15;;;3.00;;
83690;SDS011;73671;43.220;0.064;2023-11-19T05:55:38;3.75;;;2.72;;
83690;SDS011;73671;43.220;0.064;2023-11-19T05:58:14;3.50;;;2.97;;
83690;SDS011;73671;43.220;0.064;2023-11-19T06:00:40;3.85;;;2.60;;
83690;SDS011;73671;43.220;0.064;2023-11-19T06:03:06;5.10;;;2.60;;
83690;SDS011;73671;43.220;0.064;2023-11-19T06:05:32;3.60;;;2.63;;
83690;SDS011;73671;43.220;0.064;2023-11-19T06:07:58;4.30;;;2.60;;
83690;SDS011;73671;43.220;0.064;2023-11-19T06:10:23;3.10;;;2.70;;
83690;SDS011;73671;43.220;0.064;2023-11-19T06:12:59;3.95;;;2.70;;
83690;SDS011;73671;43.220;0.064;2023-11-19T06:15:28;2.95;;;2.63;;
83690;SDS011;73671;43.220;0.064;2023-11-19T06:17:53;2.95;;;2.40;;
83690;SDS011;73671;43.220;0.064;2023-11-19T06:20:25;3.58;;;2.75;;
83690;SDS011;73671;43.220;0.064;2023-11-19T06:22:53;3.58;;;2.22;;
83690;SDS011;73671;43.220;0.064;2023-11-19T06:25:18;5.70;;;2.60;;
83690;SDS011;73671;43.220;0.064;2023-11-19T06:27:44;6.45;;;2.50;;
83690;SDS011;73671;43.220;0.064;2023-11-19T06:30:09;3.72;;;2.42;;
83690;SDS011;73671;43.220;0.064;2023-11-19T06:32:36;6.22;;;2.85;;
83690;SDS011;73671;43.220;0.064;2023-11-19T06:35:02;3.75;;;2.42;;
83690;SDS011;73671;43.220;0.064;2023-11-19T06:37:29;4.10;;;2.38;;
83690;SDS011;73671;43.220;0.064;2023-11-19T06:39:55;5.15;;;2.78;;
83690;SDS011;73671;43.220;0.064;2023-11-19T06:42:20;3.38;;;2.80;;
83690;SDS011;73671;43.220;0.064;2023-11-19T06:44:46;3.75;;;2.40;;
83690;SDS011;73671;43.220;0.064;2023-11-19T06:47:11;3.03;;;2.28;;
83690;SDS011;73671;43.220;0.064;2023-11-19T06:49:36;4.25;;;2.30;;
83690;SDS011;73671;43.220;0.064;2023-11-19T06:52:02;2.40;;;2.20;;
83690;SDS011;73671;43.220;0.064;2023-11-19T06:54:27;4.00;;;2.60;;
83690;SDS011;73671;43.220;0.064;2023-11-19T06:56:53;3.00;;;2.70;;
83690;SDS011;73671;43.220;0.064;2023-11-19T06:59:18;2.83;;;2.63;;
83690;SDS011;73671;43.220;0.064;2023-11-19T07:01:44;2.70;;;2.45;;
83690;SDS011;73671;43.220;0.064;2023-11-19T07:04:12;2.70;;;2.42;;
83690;SDS011;73671;43.220;0.064;2023-11-19T07:06:38;3.15;;;2.85;;
83690;SDS011;73671;43.220;0.064;2023-11-19T07:09:06;3.67;;;2.60;;
83690;SDS011;73671;43.220;0.064;2023-11-19T07:11:43;6.00;;;2.67;;
83690;SDS011;73671;43.220;0.064;2023-11-19T07:14:10;5.20;;;2.50;;
83690;SDS011;73671;43.220;0.064;2023-11-19T07:16:36;3.28;;;2.90;;
83690;SDS011;73671;43.220;0.064;2023-11-19T07:19:05;2.80;;;2.30;;
83690;SDS011;73671;43.220;0.064;2023-11-19T07:21:31;4.38;;;2.90;;
83690;SDS011;73671;43.220;0.064;2023-11-19T07:23:58;4.57;;;2.38;;
83690;SDS011;73671;43.220;0.064;2023-11-19T07:26:24;11.38;;;5.93;;
83690;SDS011;73671;43.220;0.064;2023-11-19T07:28:49;4.90;;;3.00;;
83690;SDS011;73671;43.220;0.064;2023-11-19T07:31:15;4.25;;;3.17;;
83690;SDS011;73671;43.220;0.064;2023-11-19T07:33:41;4.05;;;2.80;;
83690;SDS011;73671;43.220;0.064;2023-11-19T07:36:10;3.35;;;2.80;;
83690;SDS011;73671;43.220;0.064;2023-11-19T07:38:36;2.85;;;2.60;;
83690;SDS011;73671;43.220;0.064;2023-11-19T07:41:02;5.75;;;2.80;;
83690;SDS011;73671;43.220;0.064;2023-11-19T07:43:27;6.05;;;2.40;;
83690;SDS011;73671;43.220;0.064;2023-11-19T07:45:52;3.20;;;2.10;;
83690;SDS011;73671;43.220;0.064;2023-11-19T07:48:18;2.35;;;2.15;;
83690;SDS011;73671;43.220;0.064;2023-11-19T07:50:48;2.38;;;2.08;;
83690;SDS011;73671;43.220;0.064;2023-11-19T07:53:15;5.75;;;2.22;;
83690;SDS011;73671;43.220;0.064;2023-11-19T07:55:41;3.22;;;2.45;;
83690;SDS011;73671;43.220;0.064;2023-11-19T07:58:06;4.88;;;2.10;;
83690;SDS011;73671;43.220;0.064;2023-11-19T08:00:32;2.55;;;2.10;;
83690;SDS011;73671;43.220;0.064;2023-11-19T08:02:57;3.78;;;2.03;;
83690;SDS011;73671;43.220;0.064;2023-11-19T08:05:22;3.83;;;2.10;;
83690;SDS011;73671;43.220;0.064;2023-11-19T08:07:49;2.60;;;2.20;;
83690;SDS011;73671;43.220;0.064;2023-11-19T08:10:16;2.30;;;2.10;;
83690;SDS011;73671;43.220;0.064;2023-11-19T08:12:41;2.47;;;2.00;;
83690;SDS011;73671;43.220;0.064;2023-11-19T08:15:07;6.63;;;2.13;;
83690;SDS011;73671;43.220;0.064;2023-11-19T08:17:33;4.10;;;2.30;;
83690;SDS011;73671;43.220;0.064;2023-11-19T08:19:58;3.05;;;2.25;;
83690;SDS011;73671;43.220;0.064;2023-11-19T08:22:25;4.65;;;2.40;;
83690;SDS011;73671;43.220;0.064;2023-11-19T08:24:51;4.30;;;2.63;;
83690;SDS011;73671;43.220;0.064;2023-11-19T08:27:16;3.35;;;2.72;;
83690;SDS011;73671;43.220;0.064;2023-11-19T08:29:41;2.80;;;2.50;;
83690;SDS011;73671;43.220;0.064;2023-11-19T08:32:07;7.43;;;2.90;;
83690;SDS011;73671;43.220;0.064;2023-11-19T08:34:32;6.10;;;4.05;;
83690;SDS011;73671;43.220;0.064;2023-11-19T08:36:58;6.22;;;4.40;;
83690;SDS011;73671;43.220;0.064;2023-11-19T08:39:24;7.82;;;5.10;;
83690;SDS011;73671;43.220;0.064;2023-11-19T08:41:49;5.78;;;4.22;;
83690;SDS011;73671;43.220;0.064;2023-11-19T08:44:15;2.13;;;1.92;;
83690;SDS011;73671;43.220;0.064;2023-11-19T08:46:50;4.45;;;2.30;;
83690;SDS011;73671;43.220;0.064;2023-11-19T08:49:15;2.38;;;1.67;;
83690;SDS011;73671;43.220;0.064;2023-11-19T08:51:42;3.53;;;1.77;;
83690;SDS011;73671;43.220;0.064;2023-11-19T08:54:08;4.80;;;1.70;;
83690;SDS011;73671;43.220;0.064;2023-11-19T08:56:33;1.60;;;1.50;;
83690;SDS011;73671;43.220;0.064;2023-11-19T08:59:00;1.30;;;1.20;;
83690;SDS011;73671;43.220;0.064;2023-11-19T09:01:26;4.55;;;2.13;;
83690;SDS011;73671;43.220;0.064;2023-11-19T09:03:51;3.03;;;1.50;;
83690;SDS011;73671;43.220;0.064;2023-11-19T09:06:17;1.90;;;1.50;;
83690;SDS011;73671;43.220;0.064;2023-11-19T09:08:42;3.47;;;2.30;;
83690;SDS011;73671;43.220;0.064;2023-11-19T09:11:08;2.22;;;1.55;;
83690;SDS011;73671;43.220;0.064;2023-11-19T09:13:34;3.75;;;1.63;;
83690;SDS011;73671;43.220;0.064;2023-11-19T09:16:00;4.40;;;1.70;;
83690;SDS011;73671;43.220;0.064;2023-11-19T09:18:28;5.40;;;1.50;;
83690;SDS011;73671;43.220;0.064;2023-11-19T09:20:54;1.90;;;1.45;;
83690;SDS011;73671;43.220;0.064;2023-11-19T09:23:19;1.75;;;1.50;;
83690;SDS011;73671;43.220;0.064;2023-11-19T09:25:45;2.80;;;2.20;;
83690;SDS011;73671;43.220;0.064;2023-11-19T09:28:10;3.13;;;2.35;;
83690;SDS011;73671;43.220;0.064;2023-11-19T09:30:35;2.88;;;2.35;;
83690;SDS011;73671;43.220;0.064;2023-11-19T09:33:01;4.80;;;2.30;;
83690;SDS011;73671;43.220;0.064;2023-11-19T09:35:27;2.90;;;2.10;;
83690;SDS011;73671;43.220;0.064;2023-11-19T09:37:52;2.75;;;2.35;;
83690;SDS011;73671;43.220;0.064;2023-11-19T09:40:18;3.65;;;2.50;;
83690;SDS011;73671;43.220;0.064;2023-11-19T09:42:44;5.00;;;2.47;;
83690;SDS011;73671;43.220;0.064;2023-11-19T09:45:15;3.58;;;2.70;;
83690;SDS011;73671;43.220;0.064;2023-11-19T09:47:43;3.63;;;2.47;;
83690;SDS011;73671;43.220;0.064;2023-11-19T09:50:19;3.10;;;2.30;;
83690;SDS011;73671;43.220;0.064;2023-11-19T09:52:46;4.15;;;2.55;;
83690;SDS011;73671;43.220;0.064;2023-11-19T09:55:12;4.40;;;2.63;;
83690;SDS011;73671;43.220;0.064;2023-11-19T09:57:41;4.20;;;2.28;;
83690;SDS011;73671;43.220;0.064;2023-11-19T10:00:10;4.38;;;2.55;;
83690;SDS011;73671;43.220;0.064;2023-11-19T10:02:37;3.67;;;2.70;;
83690;SDS011;73671;43.220;0.064;2023-11-19T10:05:05;4.47;;;2.78;;
83690;SDS011;73671;43.220;0.064;2023-11-19T10:07:32;8.50;;;3.13;;
83690;SDS011;73671;43.220;0.064;2023-11-19T10:10:02;4.43;;;2.65;;
83690;SDS011;73671;43.220;0.064;2023-11-19T10:12:32;4.25;;;2.30;;
83690;SDS011;73671;43.220;0.064;2023-11-19T10:14:58;6.65;;;2.75;;
83690;SDS011;73671;43.220;0.064;2023-11-19T10:17:27;6.03;;;3.53;;
83690;SDS011;73671;43.220;0.064;2023-11-19T10:20:01;8.77;;;4.10;;
83690;SDS011;73671;43.220;0.064;2023-11-19T10:22:28;5.35;;;3.17;;
83690;SDS011;73671;43.220;0.064;2023-11-19T10:24:53;3.35;;;2.15;;
83690;SDS011;73671;43.220;0.064;2023-11-19T10:27:19;4.63;;;1.88;;
83690;SDS011;73671;43.220;0.064;2023-11-19T10:29:45;2.58;;;1.80;;
83690;SDS011;73671;43.220;0.064;2023-11-19T10:32:12;3.45;;;2.00;;
83690;SDS011;73671;43.220;0.064;2023-11-19T10:34:38;2.50;;;1.88;;
83690;SDS011;73671;43.220;0.064;2023-11-19T10:37:04;3.50;;;1.90;;
83690;SDS011;73671;43.220;0.064;2023-11-19T10:42:21;4.93;;;1.95;;
83690;SDS011;73671;43.220;0.064;2023-11-19T10:44:47;4.50;;;1.88;;
83690;SDS011;73671;43.220;0.064;2023-11-19T10:47:15;2.90;;;1.85;;
83690;SDS011;73671;43.220;0.064;2023-11-19T10:49:44;9.57;;;2.03;;
83690;SDS011;73671;43.220;0.064;2023-11-19T10:52:14;3.00;;;2.15;;
83690;SDS011;73671;43.220;0.064;2023-11-19T10:54:42;2.22;;;1.98;;
83690;SDS011;73671;43.220;0.064;2023-11-19T10:57:09;7.15;;;2.30;;
83690;SDS011;73671;43.220;0.064;2023-11-19T10:59:38;3.83;;;2.00;;
83690;SDS011;73671;43.220;0.064;2023-11-19T11:02:06;3.60;;;2.05;;
83690;SDS011;73671;43.220;0.064;2023-11-19T11:04:35;3.78;;;2.00;;
83690;SDS011;73671;43.220;0.064;2023-11-19T11:07:05;6.05;;;2.00;;
83690;SDS011;73671;43.220;0.064;2023-11-19T11:09:32;3.97;;;2.47;;
83690;SDS011;73671;43.220;0.064;2023-11-19T11:11:58;8.75;;;4.78;;
83690;SDS011;73671;43.220;0.064;2023-11-19T11:14:24;19.35;;;9.32;;
83690;SDS011;73671;43.220;0.064;2023-11-19T11:16:52;48.50;;;22.52;;
83690;SDS011;73671;43.220;0.064;2023-11-19T11:19:18;23.63;;;8.45;;
83690;SDS011;73671;43.220;0.064;2023-11-19T11:21:45;7.43;;;4.00;;
83690;SDS011;73671;43.220;0.064;2023-11-19T11:30:05;2.05;;;1.73;;
83690;SDS011;73671;43.220;0.064;2023-11-19T11:33:04;3.05;;;1.80;;
83690;SDS011;73671;43.220;0.064;2023-11-19T11:35:47;2.35;;;2.03;;
83690;SDS011;73671;43.220;0.064;2023-11-19T11:38:21;2.95;;;1.90;;
83690;SDS011;73671;43.220;0.064;2023-11-19T11:43:46;2.47;;;2.03;;
83690;SDS011;73671;43.220;0.064;2023-11-19T11:49:03;3.78;;;1.60;;
83690;SDS011;73671;43.220;0.064;2023-11-19T11:54:31;2.10;;;1.70;;
83690;SDS011;73671;43.220;0.064;2023-11-19T11:57:10;2.38;;;1.58;;
83690;SDS011;73671;43.220;0.064;2023-11-19T12:02:07;2.00;;;1.80;;
83690;SDS011;73671;43.220;0.064;2023-11-19T12:04:36;5.40;;;2.40;;
83690;SDS011;73671;43.220;0.064;2023-11-19T12:07:06;3.70;;;2.42;;
83690;SDS011;73671;43.220;0.064;2023-11-19T12:09:32;2.92;;;2.03;;
83690;SDS011;73671;43.220;0.064;2023-11-19T12:19:58;3.22;;;1.65;;
83690;SDS011;73671;43.220;0.064;2023-11-19T12:22:24;2.47;;;1.50;;
83690;SDS011;73671;43.220;0.064;2023-11-19T12:24:50;1.73;;;1.42;;
83690;SDS011;73671;43.220;0.064;2023-11-19T12:27:20;1.75;;;1.33;;
83690;SDS011;73671;43.220;0.064;2023-11-19T12:29:48;3.63;;;1.30;;
83690;SDS011;73671;43.220;0.064;2023-11-19T12:32:14;1.67;;;1.38;;
83690;SDS011;73671;43.220;0.064;2023-11-19T12:34:40;2.00;;;1.48;;
83690;SDS011;73671;43.220;0.064;2023-11-19T12:37:05;1.55;;;1.10;;
83690;SDS011;73671;43.220;0.064;2023-11-19T12:39:31;2.65;;;1.35;;
83690;SDS011;73671;43.220;0.064;2023-11-19T12:41:57;1.50;;;1.23;;
83690;SDS011;73671;43.220;0.064;2023-11-19T12:44:24;2.10;;;1.63;;
83690;SDS011;73671;43.220;0.064;2023-11-19T12:47:03;1.42;;;1.10;;
83690;SDS011;73671;43.220;0.064;2023-11-19T12:49:31;2.03;;;1.38;;
83690;SDS011;73671;43.220;0.064;2023-11-19T12:51:57;1.10;;;1.00;;
83690;SDS011;73671;43.220;0.064;2023-11-19T12:54:35;1.83;;;1.10;;
83690;SDS011;73671;43.220;0.064;2023-11-19T12:57:01;1.48;;;1.02;;
83690;SDS011;73671;43.220;0.064;2023-11-19T12:59:28;2.40;;;1.52;;
83690;SDS011;73671;43.220;0.064;2023-11-19T13:01:56;2.03;;;1.55;;
83690;SDS011;73671;43.220;0.064;2023-11-19T13:04:23;2.80;;;0.90;;
83690;SDS011;73671;43.220;0.064;2023-11-19T13:06:51;1.80;;;1.00;;
83690;SDS011;73671;43.220;0.064;2023-11-19T13:09:23;2.35;;;1.20;;
83690;SDS011;73671;43.220;0.064;2023-11-19T13:11:52;4.28;;;1.10;;
83690;SDS011;73671;43.220;0.064;2023-11-19T13:14:19;3.47;;;1.10;;
83690;SDS011;73671;43.220;0.064;2023-11-19T13:16:45;3.72;;;1.20;;
83690;SDS011;73671;43.220;0.064;2023-11-19T13:19:12;1.75;;;1.13;;
83690;SDS011;73671;43.220;0.064;2023-11-19T13:21:38;3.60;;;1.40;;
83690;SDS011;73671;43.220;0.064;2023-11-19T13:24:05;5.55;;;1.20;;
83690;SDS011;73671;43.220;0.064;2023-11-19T13:26:31;1.50;;;1.10;;
83690;SDS011;73671;43.220;0.064;2023-11-19T13:28:56;2.67;;;1.17;;
83690;SDS011;73671;43.220;0.064;2023-11-19T13:31:22;1.50;;;1.10;;
83690;SDS011;73671;43.220;0.064;2023-11-19T13:33:47;1.35;;;1.23;;
83690;SDS011;73671;43.220;0.064;2023-11-19T13:36:12;2.17;;;1.42;;
83690;SDS011;73671;43.220;0.064;2023-11-19T13:38:38;2.15;;;1.30;;
83690;SDS011;73671;43.220;0.064;2023-11-19T13:41:06;3.72;;;1.20;;
83690;SDS011;73671;43.220;0.064;2023-11-19T13:43:31;1.88;;;1.20;;
83690;SDS011;73671;43.220;0.064;2023-11-19T13:45:57;2.22;;;0.70;;
83690;SDS011;73671;43.220;0.064;2023-11-19T13:48:25;0.93;;;0.77;;
83690;SDS011;73671;43.220;0.064;2023-11-19T13:50:53;3.22;;;1.35;;
83690;SDS011;73671;43.220;0.064;2023-11-19T13:53:19;2.35;;;0.90;;
83690;SDS011;73671;43.220;0.064;2023-11-19T13:55:45;1.10;;;0.77;;
83690;SDS011;73671;43.220;0.064;2023-11-19T13:58:10;2.03;;;0.80;;
83690;SDS011;73671;43.220;0.064;2023-11-19T14:00:36;0.98;;;0.75;;
83690;SDS011;73671;43.220;0.064;2023-11-19T14:03:02;2.63;;;0.90;;
83690;SDS011;73671;43.220;0.064;2023-11-19T14:05:27;4.57;;;0.88;;
83690;SDS011;73671;43.220;0.064;2023-11-19T14:07:53;1.15;;;0.88;;
83690;SDS011;73671;43.220;0.064;2023-11-19T14:10:21;1.42;;;0.70;;
83690;SDS011;73671;43.220;0.064;2023-11-19T14:12:47;2.15;;;0.90;;
83690;SDS011;73671;43.220;0.064;2023-11-19T14:15:12;2.05;;;0.93;;
83690;SDS011;73671;43.220;0.064;2023-11-19T14:17:38;1.58;;;0.90;;
83690;SDS011;73671;43.220;0.064;2023-11-19T14:20:04;2.15;;;1.00;;
83690;SDS011;73671;43.220;0.064;2023-11-19T14:22:37;1.00;;;0.77;;
83690;SDS011;73671;43.220;0.064;2023-11-19T14:25:06;1.55;;;0.88;;
83690;SDS011;73671;43.220;0.064;2023-11-19T14:27:35;4.80;;;0.95;;
83690;SDS011;73671;43.220;0.064;2023-11-19T14:30:11;2.05;;;1.10;;
83690;SDS011;73671;43.220;0.064;2023-11-19T14:32:42;2.80;;;1.10;;
83690;SDS011;73671;43.220;0.064;2023-11-19T14:35:09;1.48;;;1.20;;
83690;SDS011;73671;43.220;0.064;2023-11-19T14:37:35;2.42;;;1.00;;
83690;SDS011;73671;43.220;0.064;2023-11-19T14:40:00;4.00;;;1.05;;
83690;SDS011;73671;43.220;0.064;2023-11-19T14:42:29;1.17;;;0.90;;
83690;SDS011;73671;43.220;0.064;2023-11-19T14:44:55;1.38;;;1.20;;
83690;SDS011;73671;43.220;0.064;2023-11-19T14:47:20;2.20;;;1.30;;
83690;SDS011;73671;43.220;0.064;2023-11-19T14:49:46;1.67;;;1.00;;
83690;SDS011;73671;43.220;0.064;2023-11-19T14:52:12;3.08;;;1.15;;
83690;SDS011;73671;43.220;0.064;2023-11-19T14:54:37;1.33;;;1.20;;
83690;SDS011;73671;43.220;0.064;2023-11-19T14:57:04;11.02;;;1.65;;
83690;SDS011;73671;43.220;0.064;2023-11-19T14:59:30;1.63;;;1.38;;
83690;SDS011;73671;43.220;0.064;2023-11-19T15:01:55;2.72;;;1.42;;
83690;SDS011;73671;43.220;0.064;2023-11-19T15:04:20;4.03;;;1.10;;
83690;SDS011;73671;43.220;0.064;2023-11-19T15:06:46;1.52;;;1.27;;
83690;SDS011;73671;43.220;0.064;2023-11-19T15:09:11;4.35;;;1.40;;
83690;SDS011;73671;43.220;0.064;2023-11-19T15:11:42;4.00;;;1.33;;